Time;durP1;ratioP1;P1;durP2;ratioP2;P2;SDS_P1;SDS_P2;PMS_P1;PMS_P2;Temp;Humidity;BMP_temperature;BMP_pressure;BME280_temperature;BME280_humidity;BME280_pressure;Samples;Min_cycle;Max_cycle;Signal;HPM_P1;HPM_P2
2023/02/07 00:00:49;;;;;;;24.13;9.97;;;2.50;99.90;;;;;;5006261;28;20033;-71
2023/02/07 00:03:15;;;;;;;25.23;9.17;;;2.40;99.90;;;;;;5028537;28;20047;-70
2023/02/07 00:05:42;;;;;;;25.60;10.73;;;2.40;99.90;;;;;;5047974;28;20037;-69
2023/02/07 00:08:08;;;;;;;26.87;10.57;;;2.30;99.90;;;;;;5029355;28;20040;-70
2023/02/07 00:10:34;;;;;;;25.30;10.00;;;2.30;99.90;;;;;;5041719;28;20037;-70
2023/02/07 00:13:01;;;;;;;17.73;8.10;;;2.30;99.90;;;;;;5047542;28;20048;-71
2023/02/07 00:15:27;;;;;;;28.00;10.13;;;2.30;99.90;;;;;;5046500;28;20036;-70
2023/02/07 00:17:54;;;;;;;17.93;8.33;;;2.20;99.90;;;;;;5046095;28;20037;-71
2023/02/07 00:20:20;;;;;;;17.90;7.63;;;2.20;99.90;;;;;;5042271;28;20039;-71
2023/02/07 00:22:46;;;;;;;26.23;9.77;;;2.10;99.90;;;;;;5046670;28;20032;-69
2023/02/07 00:25:13;;;;;;;22.07;9.97;;;2.10;99.90;;;;;;5056731;28;20530;-71
2023/02/07 00:27:39;;;;;;;20.83;8.30;;;2.10;99.90;;;;;;5049412;28;20115;-70
2023/02/07 00:30:06;;;;;;;21.50;9.73;;;2.00;99.90;;;;;;5041979;28;20617;-71
2023/02/07 00:32:33;;;;;;;27.13;9.90;;;2.00;99.90;;;;;;5031665;28;20041;-70
2023/02/07 00:35:00;;;;;;;29.57;9.90;;;2.00;99.90;;;;;;5032725;28;20044;-70
2023/02/07 00:37:26;;;;;;;32.67;12.60;;;1.90;99.90;;;;;;5036798;28;20036;-69
2023/02/07 00:39:53;;;;;;;22.60;10.70;;;1.90;99.90;;;;;;5023554;28;20045;-72
2023/02/07 00:42:20;;;;;;;29.17;11.50;;;1.90;99.90;;;;;;5065403;28;20048;-70
2023/02/07 00:44:46;;;;;;;24.37;10.57;;;1.90;99.90;;;;;;5032132;28;20399;-70
2023/02/07 00:47:12;;;;;;;25.93;11.13;;;1.90;99.90;;;;;;5049345;28;20075;-70
2023/02/07 00:49:38;;;;;;;32.93;12.30;;;1.90;99.90;;;;;;5026248;28;20051;-71
2023/02/07 00:52:05;;;;;;;23.73;10.73;;;1.80;99.90;;;;;;5048374;28;20045;-70
2023/02/07 00:54:32;;;;;;;22.83;10.93;;;1.80;99.90;;;;;;5048193;28;20032;-70
2023/02/07 00:56:58;;;;;;;23.70;9.47;;;1.70;99.90;;;;;;5048943;28;20041;-70
2023/02/07 00:59:24;;;;;;;29.33;12.13;;;1.70;99.90;;;;;;5026127;28;20495;-71
2023/02/07 01:01:51;;;;;;;17.60;8.67;;;1.70;99.90;;;;;;5044412;28;20033;-72
2023/02/07 01:04:17;;;;;;;22.13;9.87;;;1.70;99.90;;;;;;5031467;28;20032;-70
2023/02/07 01:06:43;;;;;;;26.77;11.33;;;1.60;99.90;;;;;;5050245;28;20411;-70
2023/02/07 01:09:09;;;;;;;24.17;10.37;;;1.60;99.90;;;;;;5029617;28;20403;-70
2023/02/07 01:11:36;;;;;;;30.17;11.73;;;1.60;99.90;;;;;;5044032;28;20047;-70
2023/02/07 01:14:02;;;;;;;24.27;10.50;;;1.50;99.90;;;;;;5030838;28;20044;-70
2023/02/07 01:16:32;;;;;;;20.07;9.43;;;1.50;99.90;;;;;;5046611;28;20040;-71
2023/02/07 01:19:05;;;;;;;24.77;11.03;;;1.40;99.90;;;;;;5043722;28;20291;-71
2023/02/07 01:21:31;;;;;;;;;;;1.40;99.90;;;;;;5041263;28;20427;-70
2023/02/07 01:23:57;;;;;;;19.37;10.00;;;1.40;99.90;;;;;;5045501;28;20279;-70
2023/02/07 01:26:24;;;;;;;25.00;11.43;;;1.30;99.90;;;;;;5066013;28;20056;-71
2023/02/07 01:28:53;;;;;;;25.27;10.37;;;1.30;99.90;;;;;;5048001;28;20032;-70
2023/02/07 01:31:21;;;;;;;22.97;10.57;;;1.20;99.90;;;;;;5042182;28;20044;-70
2023/02/07 01:33:55;;;;;;;29.40;12.70;;;1.20;99.90;;;;;;5031379;28;20067;-70
2023/02/07 01:36:22;;;;;;;28.23;12.17;;;1.20;99.90;;;;;;5046369;28;20024;-70
2023/02/07 01:38:51;;;;;;;23.53;11.13;;;1.20;99.90;;;;;;5013313;28;20024;-71
2023/02/07 01:41:18;;;;;;;24.07;11.13;;;1.20;99.90;;;;;;5041256;28;20051;-71
2023/02/07 01:43:55;;;;;;;24.53;12.10;;;1.10;99.90;;;;;;5029737;28;20025;-70
2023/02/07 01:46:22;;;;;;;29.23;12.27;;;1.10;99.90;;;;;;5044769;28;20052;-70
2023/02/07 01:48:49;;;;;;;25.80;11.10;;;1.10;99.90;;;;;;5015692;28;20055;-71
2023/02/07 01:51:16;;;;;;;20.70;10.60;;;1.00;99.90;;;;;;5060385;28;20036;-70
2023/02/07 01:53:42;;;;;;;28.07;13.63;;;1.00;99.90;;;;;;5063736;28;20025;-70
2023/02/07 01:56:11;;;;;;;27.47;11.50;;;1.00;99.90;;;;;;5032403;28;20048;-70
2023/02/07 01:58:39;;;;;;;27.17;13.53;;;0.90;99.90;;;;;;5051609;28;20044;-71
2023/02/07 02:01:17;;;;;;;28.57;13.57;;;0.90;99.90;;;;;;5038590;28;20036;-71
2023/02/07 02:03:48;;;;;;;33.73;14.70;;;0.90;99.90;;;;;;5018807;28;20418;-70
2023/02/07 02:06:15;;;;;;;36.20;15.47;;;0.90;99.90;;;;;;5047937;28;20032;-70
2023/02/07 02:08:42;;;;;;;29.47;14.13;;;0.80;99.90;;;;;;5051687;28;20044;-70
2023/02/07 02:11:34;;;;;;;25.57;12.90;;;0.80;99.90;;;;;;5041377;28;20036;-70
2023/02/07 02:14:16;;;;;;;28.40;14.32;;;0.80;99.90;;;;;;5021664;28;20053;-71
2023/02/07 02:16:57;;;;;;;25.07;11.07;;;0.80;99.90;;;;;;5047716;28;20036;-71
2023/02/07 02:20:06;;;;;;;32.30;14.93;;;0.80;99.90;;;;;;5024276;28;20032;-71
2023/02/07 02:22:56;;;;;;;30.03;15.90;;;0.70;99.90;;;;;;5026605;28;20048;-70
2023/02/07 02:25:34;;;;;;;32.63;16.00;;;0.70;99.90;;;;;;5022396;28;20051;-70
2023/02/07 02:28:13;;;;;;;36.77;17.37;;;0.70;99.90;;;;;;5047616;28;20139;-70
2023/02/07 02:31:08;;;;;;;40.33;19.47;;;0.70;99.90;;;;;;5037907;28;20036;-71
2023/02/07 02:33:56;;;;;;;31.93;13.77;;;0.60;99.90;;;;;;5053527;28;20059;-70
2023/02/07 02:36:56;;;;;;;34.27;14.20;;;0.60;99.90;;;;;;5068153;28;20031;-70
2023/02/07 02:39:50;;;;;;;35.30;16.53;;;0.60;99.90;;;;;;5034664;28;20044;-71
2023/02/07 02:42:34;;;;;;;37.30;17.50;;;0.60;99.90;;;;;;5046330;28;20044;-70
2023/02/07 02:45:07;;;;;;;34.77;16.27;;;0.50;99.90;;;;;;5013508;28;20051;-72
2023/02/07 02:47:35;;;;;;;33.88;16.17;;;0.50;99.90;;;;;;5048076;28;20040;-70
2023/02/07 02:50:02;;;;;;;32.07;15.13;;;0.50;99.90;;;;;;5010024;28;20036;-70
2023/02/07 02:52:28;;;;;;;25.27;13.40;;;0.40;99.90;;;;;;5047447;28;20407;-71
2023/02/07 02:54:55;;;;;;;24.07;12.40;;;0.40;99.90;;;;;;5036165;28;20020;-72
2023/02/07 02:57:57;;;;;;;21.63;12.20;;;0.40;99.90;;;;;;5029652;28;20048;-72
2023/02/07 03:00:47;;;;;;;25.90;14.23;;;0.30;99.90;;;;;;5028317;28;20059;-72
2023/02/07 03:03:14;;;;;;;29.80;13.50;;;0.30;99.90;;;;;;5066540;28;20033;-72
2023/02/07 03:06:15;;;;;;;30.03;12.73;;;0.20;99.90;;;;;;5033971;28;20049;-72
2023/02/07 03:08:56;;;;;;;39.83;18.20;;;0.20;99.90;;;;;;5061155;28;20396;-70
2023/02/07 03:11:24;;;;;;;27.70;14.73;;;0.20;99.90;;;;;;5039547;28;20043;-70
2023/02/07 03:14:09;;;;;;;30.90;14.60;;;0.20;99.90;;;;;;5068966;28;20040;-70
2023/02/07 03:16:50;;;;;;;21.20;10.53;;;0.20;99.90;;;;;;5049458;28;20494;-70
2023/02/07 03:19:34;;;;;;;26.47;11.20;;;0.10;99.90;;;;;;5009094;28;20029;-70
2023/02/07 03:22:12;;;;;;;22.50;11.53;;;0.10;99.90;;;;;;5036366;28;20045;-70
2023/02/07 03:24:56;;;;;;;21.88;12.27;;;0.00;99.90;;;;;;5046298;28;20052;-70
2023/02/07 03:27:26;;;;;;;24.40;12.33;;;0.00;99.90;;;;;;5068220;28;20032;-71
2023/02/07 03:29:56;;;;;;;26.13;14.53;;;0.00;99.90;;;;;;5043246;28;20044;-70
2023/02/07 03:32:27;;;;;;;22.60;12.53;;;0.00;99.90;;;;;;5021435;28;20242;-70
2023/02/07 03:35:04;;;;;;;20.87;11.20;;;-0.10;99.90;;;;;;5052168;28;20094;-71
2023/02/07 03:37:33;;;;;;;25.63;13.43;;;-0.10;99.90;;;;;;5036082;28;20399;-70
2023/02/07 03:40:00;;;;;;;30.17;13.97;;;-0.10;99.90;;;;;;5026814;28;20487;-70
2023/02/07 03:42:40;;;;;;;22.03;11.80;;;-0.10;99.90;;;;;;5047928;28;20032;-72
2023/02/07 03:45:12;;;;;;;22.50;11.83;;;-0.10;99.90;;;;;;5053132;28;20502;-70
2023/02/07 03:47:38;;;;;;;29.93;14.67;;;-0.20;99.90;;;;;;5068478;28;20037;-70
2023/02/07 03:50:05;;;;;;;37.93;16.90;;;-0.20;99.90;;;;;;5041417;28;20298;-70
2023/02/07 03:52:31;;;;;;;29.97;16.10;;;-0.20;99.90;;;;;;5070913;28;20040;-70
2023/02/07 03:54:57;;;;;;;32.87;15.03;;;-0.20;99.90;;;;;;5069437;28;20040;-70
2023/02/07 03:57:24;;;;;;;26.33;12.57;;;-0.20;99.90;;;;;;5050813;28;20032;-71
2023/02/07 03:59:50;;;;;;;28.37;15.57;;;-0.20;99.90;;;;;;5058481;28;20037;-70
2023/02/07 04:02:17;;;;;;;28.07;13.70;;;-0.30;99.90;;;;;;5032492;28;20481;-70
2023/02/07 04:04:43;;;;;;;26.47;13.80;;;-0.30;99.90;;;;;;5033232;28;20040;-70
2023/02/07 04:07:10;;;;;;;32.77;15.03;;;-0.30;99.90;;;;;;5049878;28;20032;-70
2023/02/07 04:09:37;;;;;;;24.37;13.93;;;-0.30;99.90;;;;;;5059186;28;20043;-70
2023/02/07 04:12:03;;;;;;;23.57;12.20;;;-0.30;99.90;;;;;;5039456;28;20039;-71
2023/02/07 04:14:29;;;;;;;32.60;15.30;;;-0.30;99.90;;;;;;5050133;28;20510;-71
2023/02/07 04:16:56;;;;;;;29.07;14.50;;;-0.40;99.90;;;;;;5053209;28;20491;-70
2023/02/07 04:19:22;;;;;;;25.03;13.07;;;-0.40;99.90;;;;;;5030523;28;20051;-71
2023/02/07 04:21:48;;;;;;;29.97;15.67;;;-0.40;99.90;;;;;;5031472;28;20035;-70
2023/02/07 04:24:15;;;;;;;22.60;14.10;;;-0.40;99.90;;;;;;5067017;28;20408;-71
2023/02/07 04:26:41;;;;;;;27.33;13.20;;;-0.50;99.90;;;;;;5035180;28;20041;-72
2023/02/07 04:29:08;;;;;;;24.50;12.70;;;-0.50;99.90;;;;;;5044311;28;20036;-71
2023/02/07 04:31:36;;;;;;;29.53;13.53;;;-0.50;99.90;;;;;;5063799;28;20029;-70
2023/02/07 04:34:03;;;;;;;28.27;15.27;;;-0.50;99.90;;;;;;5016032;28;20052;-70
2023/02/07 04:36:30;;;;;;;25.67;13.57;;;-0.50;99.90;;;;;;5035025;28;20037;-71
2023/02/07 04:38:56;;;;;;;27.47;13.90;;;-0.50;99.90;;;;;;5066138;28;20040;-71
2023/02/07 04:41:23;;;;;;;26.73;13.67;;;-0.60;99.90;;;;;;5059974;28;20036;-70
2023/02/07 04:43:49;;;;;;;24.77;12.27;;;-0.60;99.90;;;;;;5031986;28;20044;-71
2023/02/07 04:46:15;;;;;;;19.53;10.50;;;-0.60;99.90;;;;;;5049094;28;20040;-71
2023/02/07 04:48:42;;;;;;;22.83;11.47;;;-0.60;99.90;;;;;;5031997;28;20028;-70
2023/02/07 04:51:08;;;;;;;22.87;12.23;;;-0.60;99.90;;;;;;5059872;28;20040;-70
2023/02/07 04:53:34;;;;;;;22.67;12.40;;;-0.70;99.90;;;;;;5048811;28;20047;-70
2023/02/07 04:56:01;;;;;;;31.97;14.67;;;-0.70;99.90;;;;;;5067063;28;20052;-70
2023/02/07 04:58:28;;;;;;;34.03;14.97;;;-0.70;99.90;;;;;;5031602;28;20036;-72
2023/02/07 05:00:54;;;;;;;27.87;14.00;;;-0.70;99.90;;;;;;5057843;28;20067;-70
2023/02/07 05:03:21;;;;;;;22.83;12.53;;;-0.70;99.90;;;;;;5034354;28;20320;-70
2023/02/07 05:05:47;;;;;;;22.57;11.30;;;-0.70;99.90;;;;;;5050309;28;20044;-71
2023/02/07 05:08:13;;;;;;;24.87;12.80;;;-0.70;99.90;;;;;;5033495;28;20396;-71
2023/02/07 05:10:40;;;;;;;22.47;11.83;;;-0.70;99.90;;;;;;5042472;28;20390;-70
2023/02/07 05:13:06;;;;;;;24.97;14.00;;;-0.80;99.90;;;;;;5029603;28;20040;-70
2023/02/07 05:15:33;;;;;;;22.37;12.07;;;-0.80;99.90;;;;;;5068206;28;20032;-70
2023/02/07 05:18:00;;;;;;;33.83;16.20;;;-0.80;99.90;;;;;;5047909;28;20032;-70
2023/02/07 05:20:26;;;;;;;22.97;11.63;;;-0.80;99.90;;;;;;5060149;28;20103;-72
2023/02/07 05:22:52;;;;;;;22.97;10.97;;;-0.80;99.90;;;;;;5068951;28;20483;-70
2023/02/07 05:25:19;;;;;;;34.60;15.70;;;-0.90;99.90;;;;;;5070235;28;20489;-70
2023/02/07 05:27:45;;;;;;;29.00;14.43;;;-0.90;99.90;;;;;;5067906;28;20044;-73
2023/02/07 05:30:12;;;;;;;21.07;12.33;;;-0.90;99.90;;;;;;5038443;28;20056;-71
2023/02/07 05:35:23;;;;;;;20.17;11.00;;;-0.90;99.90;;;;;;5050443;28;20418;-71
2023/02/07 05:37:49;;;;;;;21.47;10.53;;;-0.90;99.90;;;;;;5047818;28;20036;-70
2023/02/07 05:40:16;;;;;;;21.67;11.40;;;-1.00;99.90;;;;;;5022165;28;20033;-70
2023/02/07 05:42:42;;;;;;;22.27;10.77;;;-1.00;99.90;;;;;;5032351;28;20036;-71
2023/02/07 05:45:10;;;;;;;20.33;10.90;;;-1.00;99.90;;;;;;5065256;28;20032;-71
2023/02/07 05:47:36;;;;;;;22.07;10.40;;;-1.00;99.90;;;;;;5047988;28;20067;-70
2023/02/07 05:50:03;;;;;;;23.23;11.27;;;-1.00;99.90;;;;;;5055643;28;20053;-70
2023/02/07 05:52:29;;;;;;;17.10;9.80;;;-1.00;99.90;;;;;;5064833;28;20041;-70
2023/02/07 05:54:55;;;;;;;22.43;11.50;;;-1.10;99.90;;;;;;5047133;28;20517;-71
2023/02/07 05:57:22;;;;;;;17.93;9.53;;;-1.10;99.90;;;;;;5047736;28;20036;-71
2023/02/07 05:59:48;;;;;;;19.20;10.13;;;-1.10;99.90;;;;;;5022303;28;20036;-70
2023/02/07 06:02:14;;;;;;;17.80;10.00;;;-1.10;99.90;;;;;;5028962;28;20059;-71
2023/02/07 06:04:40;;;;;;;21.83;12.03;;;-1.10;99.90;;;;;;5057626;28;20391;-70
2023/02/07 06:07:07;;;;;;;17.07;10.50;;;-1.10;99.90;;;;;;5031819;28;20048;-71
2023/02/07 06:09:33;;;;;;;23.93;13.00;;;-1.20;99.90;;;;;;5052845;28;20039;-70
2023/02/07 06:12:00;;;;;;;19.53;9.47;;;-1.20;99.90;;;;;;5043338;28;20407;-69
2023/02/07 06:14:26;;;;;;;19.23;10.33;;;-1.20;99.90;;;;;;5018419;28;20040;-69
2023/02/07 06:16:52;;;;;;;19.97;9.50;;;-1.20;99.90;;;;;;5064524;28;20028;-70
2023/02/07 06:19:19;;;;;;;21.57;11.00;;;-1.20;99.90;;;;;;5059684;28;20711;-70
2023/02/07 06:21:45;;;;;;;19.27;10.73;;;-1.20;99.90;;;;;;5043224;28;20491;-70
2023/02/07 06:24:11;;;;;;;17.17;9.43;;;-1.20;99.90;;;;;;5018314;28;20028;-71
2023/02/07 06:26:37;;;;;;;19.80;11.70;;;-1.20;99.90;;;;;;5046263;28;20033;-71
2023/02/07 06:29:04;;;;;;;22.00;12.83;;;-1.20;99.90;;;;;;5042697;28;20657;-72
2023/02/07 06:31:30;;;;;;;20.30;11.80;;;-1.20;99.90;;;;;;5025840;28;20785;-69
2023/02/07 06:33:56;;;;;;;21.77;11.47;;;-1.20;99.90;;;;;;5047300;28;20040;-70
2023/02/07 06:36:22;;;;;;;20.27;11.33;;;-1.30;99.90;;;;;;5046788;28;20041;-69
2023/02/07 06:38:52;;;;;;;19.40;11.60;;;-1.30;99.90;;;;;;5035079;28;20048;-70
2023/02/07 06:41:18;;;;;;;20.80;11.30;;;-1.30;99.90;;;;;;5039312;28;20041;-71
2023/02/07 06:43:45;;;;;;;22.53;12.90;;;-1.30;99.90;;;;;;5064454;28;20029;-70
2023/02/07 06:46:11;;;;;;;23.10;10.93;;;-1.40;99.90;;;;;;5071198;28;20044;-71
2023/02/07 06:48:37;;;;;;;26.77;12.67;;;-1.40;99.90;;;;;;5046392;28;20037;-70
2023/02/07 06:51:04;;;;;;;17.27;9.43;;;-1.40;99.90;;;;;;5022640;28;20498;-70
2023/02/07 06:53:31;;;;;;;25.47;13.23;;;-1.40;99.90;;;;;;5031491;28;20029;-70
2023/02/07 06:55:58;;;;;;;28.80;13.40;;;-1.40;99.90;;;;;;5031500;28;20040;-70
2023/02/07 06:58:25;;;;;;;26.03;12.23;;;-1.40;99.90;;;;;;5034679;28;20507;-69
2023/02/07 07:00:51;;;;;;;23.27;11.37;;;-1.40;99.90;;;;;;5030207;28;20043;-71
2023/02/07 07:03:17;;;;;;;19.87;11.93;;;-1.40;99.90;;;;;;5034360;28;20036;-71
2023/02/07 07:05:44;;;;;;;22.30;11.07;;;-1.40;99.90;;;;;;5070289;28;20502;-71
2023/02/07 07:08:13;;;;;;;19.67;10.87;;;-1.40;99.90;;;;;;5067989;28;20043;-70
2023/02/07 07:10:40;;;;;;;22.73;11.73;;;-1.40;99.90;;;;;;5041116;28;20487;-70
2023/02/07 07:13:06;;;;;;;18.83;11.10;;;-1.50;99.90;;;;;;5049115;28;20384;-70
2023/02/07 07:15:32;;;;;;;22.33;10.53;;;-1.50;99.90;;;;;;5049114;28;20035;-69
2023/02/07 07:17:59;;;;;;;22.17;10.73;;;-1.50;99.90;;;;;;5070392;28;20416;-69
2023/02/07 07:20:25;;;;;;;29.57;14.87;;;-1.50;99.90;;;;;;5028930;28;20517;-71
2023/02/07 07:22:51;;;;;;;26.60;13.63;;;-1.40;99.90;;;;;;5050002;28;20043;-71
2023/02/07 07:25:18;;;;;;;24.53;13.43;;;-1.50;99.90;;;;;;5032160;28;20060;-70
2023/02/07 07:27:45;;;;;;;30.10;13.00;;;-1.40;99.90;;;;;;5070438;28;20398;-70
2023/02/07 07:30:12;;;;;;;28.13;14.70;;;-1.40;99.90;;;;;;5025531;28;20041;-70
2023/02/07 07:32:38;;;;;;;28.67;12.53;;;-1.40;99.90;;;;;;5035305;28;20067;-69
2023/02/07 07:35:05;;;;;;;23.57;12.50;;;-1.40;99.90;;;;;;5034582;28;20395;-72
2023/02/07 07:37:32;;;;;;;25.13;12.83;;;-1.40;99.90;;;;;;5053680;28;20502;-71
2023/02/07 07:39:58;;;;;;;23.00;12.70;;;-1.40;99.90;;;;;;5044817;28;20032;-69
2023/02/07 07:42:25;;;;;;;22.53;12.37;;;-1.30;99.90;;;;;;5051793;28;20404;-70
2023/02/07 07:45:15;;;;;;;27.70;13.63;;;-1.30;99.90;;;;;;5033715;28;20047;-69
2023/02/07 07:47:41;;;;;;;22.33;12.23;;;-1.20;99.90;;;;;;5017495;28;20052;-69
2023/02/07 07:50:08;;;;;;;21.63;11.60;;;-1.20;99.90;;;;;;5058030;28;20404;-69
2023/02/07 07:52:34;;;;;;;34.80;17.87;;;-1.10;99.90;;;;;;5049343;28;20044;-69
2023/02/07 07:55:01;;;;;;;34.17;17.00;;;-1.10;99.90;;;;;;5049641;28;20036;-70
2023/02/07 07:57:30;;;;;;;37.47;18.20;;;-1.10;99.90;;;;;;5050001;28;20577;-71
2023/02/07 07:59:56;;;;;;;31.30;16.70;;;-1.00;99.90;;;;;;5024260;28;20041;-69
2023/02/07 08:02:23;;;;;;;32.30;17.17;;;-1.00;99.90;;;;;;5050187;28;20040;-70
2023/02/07 08:04:50;;;;;;;31.50;16.70;;;-0.90;99.90;;;;;;5067180;28;20373;-70
2023/02/07 08:07:16;;;;;;;32.07;16.33;;;-0.90;99.90;;;;;;5066332;28;20036;-70
2023/02/07 08:09:42;;;;;;;33.43;16.93;;;-0.80;99.90;;;;;;5022874;28;20491;-70
2023/02/07 08:12:09;;;;;;;31.87;17.43;;;-0.80;99.90;;;;;;5032335;28;20059;-69
2023/02/07 08:14:35;;;;;;;42.57;21.97;;;-0.80;99.90;;;;;;5047111;28;20403;-71
2023/02/07 08:17:01;;;;;;;38.37;19.63;;;-0.70;99.90;;;;;;5020447;28;20044;-69
2023/02/07 08:19:28;;;;;;;35.07;19.37;;;-0.70;99.90;;;;;;5041963;28;20028;-69
2023/02/07 08:21:54;;;;;;;35.87;19.97;;;-0.60;99.90;;;;;;5048577;28;20036;-70
2023/02/07 08:24:20;;;;;;;32.33;18.23;;;-0.50;99.90;;;;;;5049430;28;20036;-70
2023/02/07 08:26:46;;;;;;;40.77;22.67;;;-0.50;99.90;;;;;;5051810;28;20047;-71
2023/02/07 08:29:13;;;;;;;32.67;18.63;;;-0.50;99.90;;;;;;5037831;28;20392;-70
2023/02/07 08:31:39;;;;;;;35.70;19.63;;;-0.40;99.90;;;;;;5047610;28;20041;-69
2023/02/07 08:34:05;;;;;;;36.73;20.50;;;-0.30;99.90;;;;;;5039729;28;20091;-71
2023/02/07 08:36:32;;;;;;;31.67;18.80;;;-0.30;99.90;;;;;;5068620;28;20039;-69
2023/02/07 08:38:58;;;;;;;38.17;19.77;;;-0.20;99.90;;;;;;5046656;28;20036;-71
2023/02/07 08:41:24;;;;;;;31.53;18.13;;;-0.20;99.90;;;;;;5059440;28;20029;-71
2023/02/07 08:43:51;;;;;;;41.00;21.53;;;-0.10;99.90;;;;;;5047342;28;20024;-69
2023/02/07 08:46:17;;;;;;;45.77;22.97;;;-0.10;99.90;;;;;;5049531;28;20032;-69
2023/02/07 08:48:43;;;;;;;44.53;23.40;;;0.00;99.90;;;;;;5050868;28;20475;-70
2023/02/07 08:51:10;;;;;;;35.40;19.67;;;0.10;99.90;;;;;;5040900;28;20032;-69
2023/02/07 08:53:36;;;;;;;32.17;18.37;;;0.10;99.90;;;;;;5030386;28;20418;-69
2023/02/07 08:56:03;;;;;;;36.60;20.30;;;0.20;99.90;;;;;;5051340;28;20044;-69
2023/02/07 08:58:29;;;;;;;39.57;22.70;;;0.30;99.90;;;;;;5033758;28;20059;-69
2023/02/07 09:00:56;;;;;;;42.20;23.73;;;0.40;99.90;;;;;;5045184;28;20029;-70
2023/02/07 09:03:22;;;;;;;37.43;20.93;;;0.40;99.90;;;;;;5064228;28;20044;-69
2023/02/07 09:05:48;;;;;;;36.50;21.13;;;0.40;99.90;;;;;;5032511;28;20490;-72
2023/02/07 09:08:15;;;;;;;39.67;22.63;;;0.50;99.90;;;;;;5048321;28;20496;-69
2023/02/07 09:10:41;;;;;;;44.47;24.50;;;0.60;99.90;;;;;;5040733;28;20483;-70
2023/02/07 09:13:08;;;;;;;39.70;23.53;;;0.60;99.90;;;;;;5031783;28;20055;-69
2023/02/07 09:15:34;;;;;;;41.97;22.53;;;0.70;99.90;;;;;;5041807;28;20040;-70
2023/02/07 09:18:00;;;;;;;40.73;22.10;;;0.70;99.90;;;;;;5033750;28;20049;-70
2023/02/07 09:20:27;;;;;;;41.10;24.67;;;0.80;99.90;;;;;;5060762;28;20479;-70
2023/02/07 09:25:38;;;;;;;42.30;24.03;;;0.90;99.90;;;;;;5040872;28;20045;-70
2023/02/07 09:28:04;;;;;;;43.60;24.90;;;0.90;99.90;;;;;;5040757;28;20060;-69
2023/02/07 09:30:31;;;;;;;38.53;22.60;;;1.00;99.90;;;;;;5036186;28;20033;-69
2023/02/07 09:32:57;;;;;;;37.17;22.33;;;1.00;99.90;;;;;;5045078;28;20044;-70
2023/02/07 09:35:23;;;;;;;40.33;22.40;;;1.00;99.90;;;;;;5026815;28;20363;-70
2023/02/07 09:37:54;;;;;;;33.87;19.97;;;1.10;99.90;;;;;;5043568;28;20021;-70
2023/02/07 09:40:21;;;;;;;33.97;21.10;;;1.20;99.90;;;;;;5037823;28;20048;-71
2023/02/07 09:43:23;;;;;;;40.60;21.73;;;1.30;99.90;;;;;;5042319;28;20048;-70
2023/02/07 09:45:55;;;;;;;37.23;21.10;;;1.30;99.90;;;;;;5044503;28;20480;-70
2023/02/07 09:48:30;;;;;;;36.57;20.90;;;1.40;99.90;;;;;;5033022;28;20033;-69
2023/02/07 09:51:01;;;;;;;33.07;20.60;;;1.50;99.90;;;;;;5036485;28;20910;-72
2023/02/07 09:53:47;;;;;;;30.10;18.97;;;1.50;99.90;;;;;;5044382;28;20052;-70
2023/02/07 09:56:18;;;;;;;27.57;17.30;;;1.50;99.90;;;;;;5045624;28;20033;-70
2023/02/07 09:58:50;;;;;;;35.73;20.80;;;1.60;99.90;;;;;;5027815;28;20041;-70
2023/02/07 10:01:21;;;;;;;29.27;18.58;;;1.60;99.90;;;;;;5035406;28;20060;-71
2023/02/07 10:04:23;;;;;;;31.47;18.73;;;1.70;99.90;;;;;;5044145;28;20036;-71
2023/02/07 10:06:52;;;;;;;32.77;19.53;;;1.70;99.90;;;;;;5019624;28;20041;-71
2023/02/07 10:09:29;;;;;;;31.07;19.10;;;1.80;99.90;;;;;;5037969;28;20045;-69
2023/02/07 10:11:58;;;;;;;30.83;19.57;;;1.90;99.90;;;;;;5047093;28;20122;-70
2023/02/07 10:14:51;;;;;;;25.17;16.53;;;2.10;99.90;;;;;;5046094;28;20043;-71
2023/02/07 10:17:43;;;;;;;27.80;16.25;;;2.40;99.90;;;;;;5043734;28;20388;-70
2023/02/07 10:20:25;;;;;;;23.30;15.05;;;2.90;99.90;;;;;;5004805;28;20414;-70
2023/02/07 10:23:00;;;;;;;23.10;13.48;;;3.40;99.90;;;;;;5044254;28;20347;-69
2023/02/07 10:25:57;;;;;;;21.50;13.13;;;3.80;99.90;;;;;;5056416;28;20052;-69
2023/02/07 10:28:48;;;;;;;18.77;12.10;;;4.30;99.90;;;;;;5067755;28;20419;-69
2023/02/07 10:31:17;;;;;;;19.20;11.93;;;4.70;99.90;;;;;;5022173;28;20035;-71
2023/02/07 10:34:17;;;;;;;19.60;12.20;;;5.10;99.90;;;;;;5032426;28;20516;-70
2023/02/07 10:36:46;;;;;;;19.90;12.65;;;5.30;99.90;;;;;;5047161;28;20055;-68
2023/02/07 10:39:24;;;;;;;18.05;10.27;;;5.50;99.90;;;;;;5042343;28;20040;-69
2023/02/07 10:41:56;;;;;;;16.40;11.85;;;5.70;99.90;;;;;;5044607;28;20502;-70
2023/02/07 10:44:24;;;;;;;15.30;9.43;;;5.80;99.90;;;;;;5030259;28;20047;-69
2023/02/07 10:47:00;;;;;;;16.70;10.95;;;6.20;99.90;;;;;;5046724;28;20486;-69
2023/02/07 10:49:33;;;;;;;16.05;10.43;;;6.60;99.90;;;;;;5040514;28;20036;-70
2023/02/07 10:52:28;;;;;;;12.68;8.98;;;6.90;99.90;;;;;;5063988;28;20041;-69
2023/02/07 10:54:57;;;;;;;15.38;9.55;;;7.20;99.90;;;;;;5046943;28;20029;-69
2023/02/07 10:57:25;;;;;;;12.90;8.00;;;7.50;99.90;;;;;;5035188;28;20048;-69
2023/02/07 11:00:26;;;;;;;12.55;8.48;;;7.70;99.90;;;;;;5056053;28;20039;-69
2023/02/07 11:03:06;;;;;;;11.98;7.00;;;8.00;99.90;;;;;;5023187;28;20061;-72
2023/02/07 11:05:35;;;;;;;9.05;6.40;;;8.20;99.90;;;;;;5047573;28;20051;-70
2023/02/07 11:08:03;;;;;;;8.18;6.38;;;8.30;99.90;;;;;;5046666;28;20045;-71
2023/02/07 11:10:36;;;;;;;9.70;6.40;;;8.40;99.90;;;;;;5021663;28;20044;-69
2023/02/07 11:13:08;;;;;;;8.68;5.90;;;8.30;99.90;;;;;;5065473;28;20604;-69
2023/02/07 11:15:53;;;;;;;10.63;6.85;;;7.90;99.90;;;;;;5029381;28;20037;-70
2023/02/07 11:18:36;;;;;;;8.50;5.72;;;7.30;99.90;;;;;;5046788;28;20044;-69
2023/02/07 11:21:29;;;;;;;7.65;5.70;;;6.80;99.90;;;;;;5044445;28;20028;-67
2023/02/07 11:24:04;;;;;;;8.85;5.90;;;6.20;99.90;;;;;;5045442;28;20045;-68
2023/02/07 11:26:33;;;;;;;7.50;5.18;;;5.90;99.90;;;;;;5018182;28;20364;-69
2023/02/07 11:29:14;;;;;;;9.57;6.45;;;5.50;99.90;;;;;;5060408;28;20041;-70
2023/02/07 11:31:43;;;;;;;10.57;6.03;;;5.20;99.90;;;;;;5060635;28;20511;-69
2023/02/07 11:34:28;;;;;;;8.70;5.65;;;5.00;99.90;;;;;;5045032;28;20507;-69
2023/02/07 11:37:16;;;;;;;8.98;5.72;;;4.80;99.90;;;;;;5066114;28;20032;-68
2023/02/07 11:39:43;;;;;;;7.43;4.82;;;4.60;99.90;;;;;;5038084;28;20043;-70
2023/02/07 11:42:21;;;;;;;10.18;5.75;;;4.50;99.90;;;;;;5064621;28;20036;-69
2023/02/07 11:44:49;;;;;;;8.35;5.65;;;4.40;99.90;;;;;;5063763;28;20024;-69
2023/02/07 11:47:21;;;;;;;8.13;5.20;;;4.30;99.90;;;;;;5066670;28;20036;-69
2023/02/07 11:49:53;;;;;;;6.93;4.18;;;4.20;99.90;;;;;;5055913;28;20032;-69
2023/02/07 11:52:20;;;;;;;7.33;4.50;;;4.10;99.90;;;;;;5048618;28;20084;-70
2023/02/07 11:54:53;;;;;;;7.28;5.43;;;4.10;99.90;;;;;;5062461;28;20033;-70
2023/02/07 11:57:21;;;;;;;7.03;4.22;;;4.10;99.90;;;;;;5048752;28;20066;-70
2023/02/07 12:00:00;;;;;;;6.50;4.68;;;4.00;99.90;;;;;;5007290;28;20043;-69
2023/02/07 12:02:28;;;;;;;6.38;4.40;;;4.10;99.90;;;;;;5048561;28;20024;-68
2023/02/07 12:05:10;;;;;;;6.30;4.88;;;4.00;99.90;;;;;;5067194;28;20040;-71
2023/02/07 12:07:42;;;;;;;7.60;5.63;;;4.00;99.90;;;;;;5067850;28;20032;-69
2023/02/07 12:10:31;;;;;;;6.80;5.15;;;4.00;99.90;;;;;;5025028;28;20032;-69
2023/02/07 12:13:04;;;;;;;5.28;3.67;;;4.00;99.90;;;;;;5034429;28;20036;-69
2023/02/07 12:15:51;;;;;;;5.28;3.70;;;4.00;99.90;;;;;;5032354;28;20059;-69
2023/02/07 12:18:29;;;;;;;5.43;3.80;;;3.90;99.90;;;;;;5049608;28;20039;-70
2023/02/07 12:21:04;;;;;;;5.10;3.77;;;3.90;99.90;;;;;;5041188;28;20041;-69
2023/02/07 12:24:01;;;;;;;6.35;4.68;;;4.00;99.90;;;;;;5049472;28;20036;-70
2023/02/07 12:26:43;;;;;;;7.68;4.65;;;4.10;99.90;;;;;;5049127;28;20048;-69
2023/02/07 12:29:50;;;;;;;5.53;3.90;;;4.60;99.90;;;;;;5028413;28;20043;-69
2023/02/07 12:32:37;;;;;;;7.75;4.85;;;4.90;99.90;;;;;;5049148;28;20040;-71
2023/02/07 12:35:22;;;;;;;6.40;4.38;;;4.90;99.90;;;;;;5020304;28;20040;-69
2023/02/07 12:38:12;;;;;;;9.65;5.03;;;4.80;99.90;;;;;;5030413;28;20029;-69
2023/02/07 12:40:47;;;;;;;7.75;4.93;;;4.60;99.90;;;;;;5023361;28;20024;-69
2023/02/07 12:43:26;;;;;;;9.80;5.40;;;4.50;99.90;;;;;;5066981;28;20040;-69
2023/02/07 12:46:02;;;;;;;7.65;5.20;;;4.40;99.90;;;;;;5030713;28;20373;-69
2023/02/07 12:48:53;;;;;;;7.20;5.20;;;4.30;99.90;;;;;;5048728;28;20028;-69
2023/02/07 12:51:47;;;;;;;7.80;5.25;;;4.20;99.90;;;;;;5041589;28;20428;-70
2023/02/07 12:54:17;;;;;;;7.37;4.10;;;4.20;99.90;;;;;;5049011;28;20049;-70
2023/02/07 12:56:58;;;;;;;8.05;5.18;;;4.10;99.90;;;;;;5069054;28;20028;-69
2023/02/07 12:59:49;;;;;;;9.27;4.68;;;4.10;99.90;;;;;;5040738;28;20049;-69
2023/02/07 13:02:21;;;;;;;6.88;5.65;;;4.00;99.90;;;;;;5031719;28;20041;-69